Time;durP1;ratioP1;P1;durP2;ratioP2;P2;SDS_P1;SDS_P2;PMS_P1;PMS_P2;Temp;Humidity;BMP_temperature;BMP_pressure;BME280_temperature;BME280_humidity;BME280_pressure;Samples;Min_cycle;Max_cycle;Signal;HPM_P1;HPM_P2
2021/03/25 00:01:13;;;;;;;71.97;41.08;;;;;;;-0.21;76.69;100027.83;1745224;81;21512;-78
2021/03/25 00:03:40;;;;;;;73.07;44.13;;;;;;;-0.27;76.77;100034.66;1742497;81;21159;-78
2021/03/25 00:06:08;;;;;;;74.70;43.87;;;;;;;-0.25;76.96;100034.24;1748951;81;21235;-78
2021/03/25 00:08:35;;;;;;;73.57;43.92;;;;;;;-0.17;77.10;100033.37;1739553;81;21235;-78
2021/03/25 00:11:02;;;;;;;73.30;44.50;;;;;;;-0.08;77.20;100032.12;1736025;81;21147;-77
2021/03/25 00:13:29;;;;;;;69.82;43.58;;;;;;;0.01;77.28;100029.56;1743669;81;21053;-77
2021/03/25 00:15:57;;;;;;;79.35;45.67;;;;;;;0.07;77.27;100029.56;1746283;81;21171;-77
2021/03/25 00:18:24;;;;;;;77.90;44.20;;;;;;;0.11;77.17;100028.72;1743508;81;22455;-77
2021/03/25 00:20:52;;;;;;;78.47;46.68;;;;;;;0.13;77.20;100025.70;1750785;81;21175;-77
2021/03/25 00:23:19;;;;;;;71.60;43.78;;;;;;;0.14;77.15;100023.58;1743424;81;21199;-77
2021/03/25 00:25:46;;;;;;;70.75;43.30;;;;;;;0.17;77.14;100021.01;1746187;81;21649;-78
2021/03/25 00:28:16;;;;;;;73.10;42.40;;;;;;;0.18;77.19;100026.56;1741704;81;21153;-78
2021/03/25 00:30:44;;;;;;;68.25;42.30;;;;;;;0.23;77.29;100019.30;1741472;81;21366;-78
2021/03/25 00:33:15;;;;;;;66.37;40.78;;;;;;;0.28;77.39;100023.98;1743918;81;21235;-78
2021/03/25 00:35:43;;;;;;;73.37;42.55;;;;;;;0.32;77.23;100024.42;1738352;81;21236;-78
2021/03/25 00:38:11;;;;;;;72.92;42.60;;;;;;;0.32;77.16;100015.00;1741499;81;21211;-78
2021/03/25 00:40:39;;;;;;;69.10;41.70;;;;;;;0.35;77.29;100020.56;1738407;81;21651;-78
2021/03/25 00:43:07;;;;;;;;;;;;;;;0.41;77.49;100016.70;1751918;81;21221;-77
2021/03/25 00:45:38;;;;;;;70.10;40.78;;;;;;;0.49;77.75;100017.55;1742150;81;20194;-78
2021/03/25 00:48:07;;;;;;;70.25;41.65;;;;;;;0.56;77.65;100013.23;1739712;81;21061;-77
2021/03/25 00:50:47;;;;;;;65.22;38.78;;;;;;;0.59;77.37;100012.83;1738790;81;21235;-78
2021/03/25 00:53:20;;;;;;;69.12;41.68;;;;;;;0.62;77.37;100016.67;1748284;81;21308;-78
2021/03/25 00:55:47;;;;;;;64.03;39.73;;;;;;;0.68;77.45;100012.38;1740825;81;21268;-78
2021/03/25 00:58:14;;;;;;;66.65;38.73;;;;;;;0.71;77.41;100013.66;1742004;81;21291;-78
2021/03/25 01:00:45;;;;;;;65.15;39.58;;;;;;;0.67;77.36;100006.36;1741875;81;21183;-78
2021/03/25 01:03:14;;;;;;;68.55;38.58;;;;;;;0.62;77.37;100005.11;1742866;81;21169;-78
2021/03/25 01:05:41;;;;;;;58.48;35.55;;;;;;;0.58;77.38;100007.67;1747234;81;21165;-78
2021/03/25 01:08:09;;;;;;;66.50;38.17;;;;;;;0.55;77.53;99998.69;1743242;81;21214;-78
2021/03/25 01:10:42;;;;;;;62.60;39.25;;;;;;;0.56;77.57;100006.41;1750454;81;21202;-78
2021/03/25 01:13:26;;;;;;;62.30;39.35;;;;;;;0.57;77.62;99999.55;1740143;81;21248;-78
2021/03/25 01:15:53;;;;;;;66.00;40.65;;;;;;;0.59;77.71;99999.98;1747345;81;21010;-78
2021/03/25 01:18:20;;;;;;;68.47;40.38;;;;;;;0.65;77.78;99998.67;1751066;81;21175;-78
2021/03/25 01:20:47;;;;;;;65.47;39.55;;;;;;;0.74;77.81;99999.51;1745068;81;22307;-78
2021/03/25 01:23:16;;;;;;;54.77;36.13;;;;;;;0.84;77.82;99996.03;1747835;81;21262;-78
2021/03/25 01:26:05;;;;;;;64.67;39.48;;;;;;;0.88;77.85;99990.88;1740269;81;21136;-78
2021/03/25 01:28:32;;;;;;;73.57;41.73;;;;;;;0.91;77.87;99993.87;1662607;84;21265;-78
2021/03/25 01:30:59;;;;;;;66.90;40.48;;;;;;;0.97;77.89;99991.27;1667283;84;21449;-78
2021/03/25 01:35:22;;;;;;;68.25;39.50;;;;;;;1.15;77.95;99992.05;1799376;78;22825;-77
2021/03/25 01:37:50;;;;;;;68.40;39.95;;;;;;;1.13;77.92;99986.08;1768156;80;21057;-76
2021/03/25 01:40:34;;;;;;;64.37;36.40;;;;;;;1.13;77.87;99984.80;1767611;80;21191;-76
2021/03/25 01:43:30;;;;;;;61.75;38.92;;;;;;;1.13;77.90;99983.08;1767950;80;21620;-78
2021/03/25 01:46:23;;;;;;;59.25;37.45;;;;;;;1.13;77.87;99980.94;1763894;79;21058;-77
2021/03/25 01:48:54;;;;;;;68.95;42.15;;;;;;;1.09;77.82;99981.36;1773297;80;21262;-78
2021/03/25 01:52:00;;;;;;;60.95;38.40;;;;;;;1.04;77.84;99983.97;1769388;80;20993;-78
2021/03/25 01:54:39;;;;;;;66.15;39.55;;;;;;;1.03;77.91;99978.39;1732904;81;21221;-78
2021/03/25 01:57:31;;;;;;;70.00;40.28;;;;;;;1.04;77.96;99988.27;1709648;83;21207;-79
2021/03/25 02:00:28;;;;;;;63.23;39.30;;;;;;;1.02;77.99;99981.83;1710356;81;21687;-78
2021/03/25 02:03:06;;;;;;;66.12;39.48;;;;;;;1.02;77.99;99988.26;1730870;81;21152;-77
2021/03/25 02:06:12;;;;;;;61.70;38.02;;;;;;;1.01;77.96;99985.68;1715526;82;21201;-78
2021/03/25 02:09:08;;;;;;;61.27;38.30;;;;;;;1.00;78.02;99979.69;1732859;81;22591;-78
2021/03/25 02:12:05;;;;;;;71.60;40.10;;;;;;;0.98;78.04;99978.87;1732496;81;21067;-78
2021/03/25 02:15:22;;;;;;;52.17;36.68;;;;;;;0.95;78.02;99981.42;1672134;84;24919;-78
2021/03/25 02:17:54;;;;;;;58.58;35.38;;;;;;;0.92;78.08;99976.30;1672716;85;22180;-78
2021/03/25 02:20:55;;;;;;;60.78;37.35;;;;;;;0.89;78.14;99971.16;1665624;85;21218;-77
2021/03/25 02:23:27;;;;;;;58.38;37.10;;;;;;;0.86;78.09;99966.04;1664853;85;21698;-78
2021/03/25 02:26:09;;;;;;;65.50;38.88;;;;;;;0.83;78.15;99971.20;1662503;85;21262;-78
2021/03/25 02:28:56;;;;;;;65.15;37.63;;;;;;;0.82;78.21;99965.64;1665927;85;21243;-78
2021/03/25 02:31:26;;;;;;;61.42;36.80;;;;;;;0.82;78.22;99965.64;1669774;85;21196;-78
2021/03/25 02:33:57;;;;;;;63.25;38.00;;;;;;;0.81;78.25;99954.91;1664127;84;21266;-78
2021/03/25 02:36:32;;;;;;;56.95;37.60;;;;;;;0.79;78.23;99959.23;1654865;85;21642;-78
2021/03/25 02:39:12;;;;;;;61.40;38.10;;;;;;;0.79;78.27;99959.23;1860363;75;22900;-77
2021/03/25 02:41:47;;;;;;;64.67;40.60;;;;;;;0.71;78.24;99959.69;1835026;77;21076;-77
2021/03/25 02:44:23;;;;;;;62.25;37.55;;;;;;;0.66;78.25;99955.40;1834933;77;22163;-78
2021/03/25 02:46:54;;;;;;;73.12;42.78;;;;;;;0.60;78.19;99954.14;1836780;77;21534;-78
2021/03/25 02:49:28;;;;;;;79.92;45.28;;;;;;;0.53;78.20;99960.14;1837760;77;21563;-78
2021/03/25 02:52:23;;;;;;;74.00;44.58;;;;;;;0.49;78.35;99957.60;1834507;77;21018;-78
2021/03/25 02:54:53;;;;;;;70.78;43.30;;;;;;;0.45;78.36;99954.20;1835479;75;21582;-79
2021/03/25 02:57:28;;;;;;;73.07;44.93;;;;;;;0.41;78.44;99952.48;1833261;75;21558;-78
2021/03/25 02:59:59;;;;;;;69.62;42.55;;;;;;;0.39;78.48;99951.62;1832580;75;21063;-77
2021/03/25 03:02:44;;;;;;;71.90;45.05;;;;;;;0.37;78.55;99948.22;1839916;75;20977;-78
2021/03/25 03:05:19;;;;;;;67.78;42.70;;;;;;;0.35;78.54;99943.50;1834244;75;21272;-79
2021/03/25 03:07:57;;;;;;;70.80;42.45;;;;;;;0.36;78.60;99946.48;1835455;77;21022;-79
2021/03/25 03:10:29;;;;;;;75.10;43.55;;;;;;;0.35;78.58;99940.94;1805677;77;21406;-78
2021/03/25 03:12:59;;;;;;;71.07;42.15;;;;;;;0.33;78.67;99951.20;1797972;78;21139;-78
2021/03/25 03:15:34;;;;;;;71.12;42.73;;;;;;;0.34;78.65;99943.09;1763171;80;21129;-78
2021/03/25 03:18:09;;;;;;;76.92;43.52;;;;;;;0.34;78.70;99946.95;1778120;78;21355;-78
2021/03/25 03:20:48;;;;;;;69.70;43.33;;;;;;;0.35;78.75;99944.79;1795911;78;21268;-78
2021/03/25 03:23:15;;;;;;;76.45;44.35;;;;;;;0.35;78.74;99939.66;1765733;80;22633;-78
2021/03/25 03:25:42;;;;;;;75.78;45.40;;;;;;;0.35;78.70;99939.66;1773880;79;21216;-78
2021/03/25 03:28:44;;;;;;;77.95;44.30;;;;;;;0.34;78.69;99935.39;1769910;79;21181;-78
2021/03/25 03:31:19;;;;;;;69.07;41.98;;;;;;;0.35;78.69;99933.23;1700057;82;21124;-78
2021/03/25 03:33:53;;;;;;;70.52;42.17;;;;;;;0.34;78.65;99932.81;1704043;82;21178;-78
2021/03/25 03:36:24;;;;;;;68.92;42.05;;;;;;;0.34;78.61;99934.10;1674932;82;21211;-78
2021/03/25 03:39:08;;;;;;;75.20;43.30;;;;;;;0.30;78.51;99928.53;1666921;84;22170;-78
2021/03/25 03:41:43;;;;;;;77.32;43.52;;;;;;;0.23;78.53;99921.72;1699552;83;21044;-78
2021/03/25 03:44:15;;;;;;;74.67;43.92;;;;;;;0.18;78.54;99923.00;1698945;83;21198;-79
2021/03/25 03:46:44;;;;;;;77.65;45.12;;;;;;;0.15;78.72;99917.44;1699811;83;21237;-78
2021/03/25 03:49:16;;;;;;;77.37;45.60;;;;;;;0.16;78.92;99914.00;1700896;82;21253;-77
2021/03/25 03:52:10;;;;;;;75.37;44.25;;;;;;;0.20;79.01;99910.58;1699547;83;21218;-78
2021/03/25 03:54:38;;;;;;;81.92;46.50;;;;;;;0.28;79.23;99914.83;1698435;83;21214;-77
2021/03/25 03:57:48;;;;;;;77.08;43.87;;;;;;;0.35;79.26;99908.83;1701300;83;21159;-77
2021/03/25 04:00:23;;;;;;;73.30;45.60;;;;;;;0.40;79.29;99909.67;1698509;83;21284;-78
2021/03/25 04:03:28;;;;;;;79.42;45.33;;;;;;;0.48;79.25;99910.52;1699707;82;21286;-77
2021/03/25 04:06:00;;;;;;;74.60;44.23;;;;;;;0.51;79.25;99907.92;1641453;86;22325;-77
2021/03/25 04:09:09;;;;;;;80.65;44.42;;;;;;;0.54;79.21;99905.34;1689562;83;21210;-77
2021/03/25 04:11:47;;;;;;;71.97;41.15;;;;;;;0.54;79.24;99900.20;1687301;83;21213;-78
2021/03/25 04:14:25;;;;;;;75.95;44.55;;;;;;;0.57;79.30;99895.05;1662818;84;21279;-78
2021/03/25 04:16:53;;;;;;;;;;;;;;;0.61;79.29;99892.88;1696861;83;21237;-77
2021/03/25 04:19:24;;;;;;;69.62;41.25;;;;;;;0.63;79.34;99902.73;1668398;84;20344;-77
2021/03/25 04:22:00;;;;;;;75.12;43.75;;;;;;;0.64;79.32;99900.61;1685333;83;21170;-77
2021/03/25 04:24:52;;;;;;;80.45;43.23;;;;;;;0.70;79.33;99893.70;1865738;75;22407;-77
2021/03/25 04:27:23;;;;;;;71.57;42.03;;;;;;;0.66;79.29;99895.00;1830568;77;21068;-78
2021/03/25 04:29:59;;;;;;;69.75;44.48;;;;;;;0.69;79.43;99892.86;1833465;77;22083;-79
2021/03/25 04:32:26;;;;;;;71.92;42.65;;;;;;;0.72;79.41;99898.41;1831918;77;21074;-80
2021/03/25 04:34:53;;;;;;;;;;;;;;;0.74;79.37;99895.42;1837961;77;21174;-78
2021/03/25 04:37:20;;;;;;;63.60;40.63;;;;;;;0.77;79.41;99897.97;1834955;77;20140;-78
2021/03/25 04:39:51;;;;;;;69.32;41.50;;;;;;;0.79;79.39;99905.25;1834154;77;21344;-77
2021/03/25 04:42:18;;;;;;;72.12;42.33;;;;;;;0.79;79.34;99900.11;1829441;77;21294;-77
2021/03/25 04:44:52;;;;;;;65.60;40.35;;;;;;;0.81;79.31;99900.94;1837987;77;21056;-78
2021/03/25 04:47:27;;;;;;;71.87;42.33;;;;;;;0.84;79.35;99895.77;1802811;77;20999;-78
2021/03/25 04:50:15;;;;;;;73.17;41.30;;;;;;;0.89;79.39;99897.89;1831962;77;21574;-77
2021/03/25 04:52:42;;;;;;;61.05;38.78;;;;;;;0.99;79.42;99899.57;1832940;77;21124;-77
2021/03/25 04:55:17;;;;;;;66.75;40.65;;;;;;;1.16;79.44;99901.20;1835449;77;21199;-77
2021/03/25 04:57:54;;;;;;;60.45;39.35;;;;;;;1.34;79.47;99889.48;1830841;77;21131;-78
2021/03/25 05:00:32;;;;;;;67.90;40.30;;;;;;;1.58;79.34;99897.90;1831507;77;21133;-77
2021/03/25 05:03:05;;;;;;;64.47;38.63;;;;;;;1.82;79.18;99895.13;1834408;77;21124;-78
2021/03/25 05:05:34;;;;;;;62.85;39.78;;;;;;;2.06;79.06;99897.05;1831830;77;21167;-77
2021/03/25 05:08:17;;;;;;;59.60;39.42;;;;;;;2.27;78.89;99897.23;1802359;77;21200;-77
2021/03/25 05:10:52;;;;;;;62.40;40.45;;;;;;;2.36;78.66;99887.70;1827592;77;21155;-77
2021/03/25 05:13:33;;;;;;;59.65;38.83;;;;;;;2.48;78.57;99893.59;1833453;77;21196;-78
2021/03/25 05:16:45;;;;;;;60.80;39.50;;;;;;;2.58;78.51;99892.63;1824363;77;21420;-77
2021/03/25 05:19:35;;;;;;;64.27;40.88;;;;;;;2.58;78.30;99899.06;1835184;77;21166;-78
2021/03/25 05:22:26;;;;;;;58.48;38.78;;;;;;;2.61;78.54;99897.73;1832563;77;21200;-77
2021/03/25 05:25:07;;;;;;;59.10;39.65;;;;;;;2.79;78.66;99902.65;1835674;77;22164;-79
2021/03/25 05:27:46;;;;;;;62.80;40.88;;;;;;;3.17;78.86;99901.30;1830846;77;21546;-77
2021/03/25 05:30:24;;;;;;;59.93;39.27;;;;;;;3.63;78.60;99903.17;1834318;77;21204;-78
2021/03/25 05:32:59;;;;;;;64.75;40.23;;;;;;;4.13;78.45;99901.45;1835956;77;21147;-79
2021/03/25 05:35:31;;;;;;;62.35;37.90;;;;;;;4.43;77.75;99897.90;1830687;77;21177;-79
2021/03/25 05:37:59;;;;;;;56.85;38.90;;;;;;;4.73;77.52;99896.86;1830976;77;21240;-79
2021/03/25 05:40:40;;;;;;;56.28;37.70;;;;;;;4.81;76.95;99894.97;1828512;75;21239;-79
2021/03/25 05:43:45;;;;;;;51.75;35.70;;;;;;;4.83;77.04;99900.97;1829658;77;21785;-77
2021/03/25 05:46:26;;;;;;;52.62;38.15;;;;;;;5.05;77.20;99897.04;1829522;77;21212;-78
2021/03/25 05:49:23;;;;;;;59.77;38.88;;;;;;;5.44;77.34;99902.20;1834184;77;21597;-78
2021/03/25 05:52:29;;;;;;;55.92;39.95;;;;;;;5.76;77.03;99892.80;1835223;77;21184;-78
2021/03/25 05:55:32;;;;;;;65.75;39.20;;;;;;;6.17;77.15;99896.95;1830455;77;21132;-78
2021/03/25 05:58:10;;;;;;;51.42;37.08;;;;;;;6.61;76.95;99896.63;1832774;76;21597;-78
2021/03/25 06:00:55;;;;;;;51.80;37.90;;;;;;;6.94;76.29;99898.23;1835533;77;21234;-78
2021/03/25 06:03:26;;;;;;;55.50;38.50;;;;;;;7.08;76.35;99891.80;1795455;78;21198;-76
2021/03/25 06:05:57;;;;;;;55.75;39.55;;;;;;;7.31;76.12;99900.17;1768846;78;21217;-78
2021/03/25 06:08:47;;;;;;;56.05;39.95;;;;;;;7.44;75.96;99899.36;1784403;79;21665;-78
2021/03/25 06:11:49;;;;;;;56.30;40.75;;;;;;;7.61;76.11;99897.06;1783940;78;21187;-78
2021/03/25 06:14:36;;;;;;;53.38;36.08;;;;;;;7.81;75.66;99899.01;1776638;78;23688;-78
2021/03/25 06:17:27;;;;;;;51.48;39.05;;;;;;;8.14;75.67;99901.38;1798847;78;21315;-78
2021/03/25 06:20:11;;;;;;;43.90;31.93;;;;;;;8.33;75.19;99902.45;1792215;78;21140;-77
2021/03/25 06:23:02;;;;;;;38.95;32.58;;;;;;;8.39;74.73;99907.91;1801733;78;21652;-82
2021/03/25 06:26:07;;;;;;;44.27;33.48;;;;;;;8.35;74.49;99910.20;1745096;80;21331;-76
2021/03/25 06:29:03;;;;;;;41.08;31.82;;;;;;;8.46;74.54;99913.31;1794365;78;22909;-81
2021/03/25 06:31:47;;;;;;;43.95;32.75;;;;;;;8.53;74.81;99908.27;1768155;78;21150;-77
2021/03/25 06:34:39;;;;;;;61.05;33.33;;;;;;;8.90;75.03;99904.31;1765811;80;21205;-78
2021/03/25 06:37:30;;;;;;;43.85;32.88;;;;;;;9.45;74.46;99898.28;1763619;80;21120;-78
2021/03/25 06:40:08;;;;;;;42.20;34.50;;;;;;;9.45;74.46;99898.28;1759423;80;21511;-78
2021/03/25 06:42:52;;;;;;;49.55;33.85;;;;;;;9.61;74.14;99903.75;1746781;78;21783;-80
2021/03/25 06:45:30;;;;;;;57.60;36.30;;;;;;;9.68;73.72;99896.51;1763126;80;21008;-80
2021/03/25 06:48:17;;;;;;;40.00;32.73;;;;;;;9.68;73.89;99896.51;1767351;79;21275;-84
2021/03/25 06:50:50;;;;;;;40.58;33.58;;;;;;;9.77;73.65;99899.58;1770677;79;21088;-78
2021/03/25 06:53:34;;;;;;;60.03;34.18;;;;;;;9.80;73.38;99898.60;1765090;79;20998;-80
2021/03/25 06:56:12;;;;;;;41.42;33.33;;;;;;;9.55;73.20;99903.53;1769560;79;21239;-78
2021/03/25 06:58:47;;;;;;;39.48;32.90;;;;;;;9.49;73.63;99907.66;1769650;80;21179;-78
2021/03/25 07:01:37;;;;;;;40.40;32.70;;;;;;;9.19;73.15;99908.44;1769287;79;21229;-77
2021/03/25 07:04:10;;;;;;;49.40;33.50;;;;;;;9.19;73.15;99908.44;1753534;80;21645;-77
2021/03/25 07:06:38;;;;;;;48.00;36.85;;;;;;;9.03;73.37;99925.09;1763441;80;21391;-80
2021/03/25 07:09:05;;;;;;;49.30;37.03;;;;;;;8.85;73.36;99933.58;1767824;79;21156;-78
2021/03/25 07:11:33;;;;;;;42.78;34.08;;;;;;;8.76;73.34;99926.11;1769396;79;26622;-79
2021/03/25 07:14:08;;;;;;;40.92;33.15;;;;;;;8.68;73.35;99915.55;1764242;80;21253;-80
2021/03/25 07:16:44;;;;;;;46.35;32.98;;;;;;;8.62;73.48;99918.34;1766326;79;21183;-80
2021/03/25 07:19:15;;;;;;;51.37;38.83;;;;;;;8.49;73.39;99919.25;1764479;80;22350;-81
2021/03/25 07:21:47;;;;;;;65.12;39.83;;;;;;;8.35;73.35;99921.46;1769081;80;21204;-78
2021/03/25 07:27:16;;;;;;;64.10;51.23;;;;;;;8.24;73.38;99912.72;1757263;79;28203;-78
2021/03/25 07:30:03;;;;;;;56.98;41.23;;;;;;;8.25;73.39;99920.91;1746797;80;21104;-78
2021/03/25 07:32:36;;;;;;;57.03;38.08;;;;;;;8.18;73.15;99918.14;1752613;80;21314;-78
2021/03/25 07:35:33;;;;;;;53.78;39.75;;;;;;;8.19;73.51;99923.73;1749182;80;21167;-78
2021/03/25 07:38:05;;;;;;;53.73;38.90;;;;;;;8.24;73.44;99929.62;1744415;80;21111;-78
2021/03/25 07:40:38;;;;;;;63.60;38.00;;;;;;;8.37;73.63;99930.03;1749104;80;21202;-78
2021/03/25 07:43:24;;;;;;;57.05;37.85;;;;;;;8.50;73.39;99926.14;1721671;80;20969;-79
2021/03/25 07:46:24;;;;;;;54.75;39.58;;;;;;;8.66;73.40;99922.55;1749904;80;22483;-78
2021/03/25 07:49:06;;;;;;;47.95;38.15;;;;;;;8.90;73.62;99927.29;1747866;80;21715;-78
2021/03/25 07:52:00;;;;;;;56.85;38.10;;;;;;;9.06;73.12;99924.97;1723487;80;21080;-78
2021/03/25 07:54:34;;;;;;;59.93;39.60;;;;;;;9.24;73.10;99922.57;1742883;80;21227;-79
2021/03/25 07:57:09;;;;;;;55.43;37.78;;;;;;;9.48;72.86;99929.44;1747508;80;21159;-79
2021/03/25 07:59:51;;;;;;;60.65;39.75;;;;;;;9.78;73.08;99923.92;1749090;80;21736;-79
2021/03/25 08:02:40;;;;;;;56.75;40.33;;;;;;;10.03;72.84;99935.03;1746651;80;21277;-78
2021/03/25 08:05:35;;;;;;;68.83;40.25;;;;;;;9.90;71.74;99926.02;1721326;81;21258;-78
2021/03/25 08:08:30;;;;;;;51.40;37.83;;;;;;;9.93;72.21;99921.97;1704839;83;21137;-80
2021/03/25 08:11:19;;;;;;;57.35;40.43;;;;;;;9.82;71.46;99917.66;1701450;83;21221;-79
2021/03/25 08:13:52;;;;;;;43.02;33.95;;;;;;;9.80;72.06;99922.08;1700922;82;21216;-79
2021/03/25 08:16:20;;;;;;;48.92;34.70;;;;;;;9.98;72.03;99918.72;1705756;83;21231;-80
2021/03/25 08:19:22;;;;;;;58.58;41.70;;;;;;;10.08;71.65;99923.95;1701922;83;21215;-87
2021/03/25 08:22:27;;;;;;;44.70;33.40;;;;;;;10.22;71.85;99921.20;1699899;82;21187;-80
2021/03/25 08:25:31;;;;;;;41.70;31.02;;;;;;;10.37;71.17;99915.83;1702770;82;21240;-83
2021/03/25 08:28:30;;;;;;;58.58;40.35;;;;;;;10.41;71.16;99915.61;1707792;82;21829;-75
2021/03/25 08:31:17;;;;;;;40.58;31.35;;;;;;;10.57;71.55;99913.66;1706870;83;21672;-77
2021/03/25 08:33:52;;;;;;;43.08;32.75;;;;;;;10.82;71.58;99911.64;1701555;82;21256;-77
2021/03/25 08:36:45;;;;;;;86.20;36.90;;;;;;;11.12;71.36;99908.55;1699774;82;21516;-77
2021/03/25 08:39:38;;;;;;;41.48;32.35;;;;;;;11.23;70.74;99910.20;1708938;82;21543;-81
2021/03/25 08:42:42;;;;;;;40.95;32.63;;;;;;;11.31;70.94;99911.97;1652651;85;21797;-80
2021/03/25 08:48:38;;;;;;;43.00;37.93;;;;;;;11.57;70.08;99905.98;1776800;78;27924;-80
2021/03/25 08:51:20;;;;;;;41.42;31.05;;;;;;;11.46;69.92;99903.03;1769504;80;21216;-80
2021/03/25 08:55:32;;;;;;;53.50;31.57;;;;;;;11.46;69.71;99906.95;1838847;77;23349;-81
2021/03/25 08:58:20;;;;;;;38.35;29.37;;;;;;;11.45;69.87;99911.31;1802715;78;22264;-80
2021/03/25 09:00:51;;;;;;;39.33;29.57;;;;;;;11.53;69.73;99901.80;1810060;77;21187;-79
2021/03/25 09:03:35;;;;;;;45.43;31.65;;;;;;;11.87;69.94;99908.87;1810921;77;21033;-81
2021/03/25 09:06:25;;;;;;;56.45;34.70;;;;;;;11.87;69.94;99908.87;1805293;77;21100;-80
2021/03/25 09:09:00;;;;;;;48.33;33.60;;;;;;;11.86;69.14;99910.64;1806094;77;21118;-81
2021/03/25 09:11:27;;;;;;;46.92;34.35;;;;;;;11.93;69.17;99909.90;1801806;77;21171;-82
2021/03/25 09:14:00;;;;;;;41.75;34.50;;;;;;;11.96;69.04;99911.48;1812140;77;21202;-82
2021/03/25 09:16:36;;;;;;;61.68;34.10;;;;;;;11.91;68.81;99905.66;1807250;78;21634;-78
2021/03/25 09:19:08;;;;;;;48.13;32.95;;;;;;;11.94;68.81;99900.27;1808075;78;21281;-81
2021/03/25 09:21:35;;;;;;;43.87;28.00;;;;;;;12.02;68.87;99904.66;1805364;77;21253;-80
2021/03/25 09:24:09;;;;;;;42.75;28.83;;;;;;;12.08;68.39;99912.20;1807867;77;21206;-79
2021/03/25 09:26:51;;;;;;;34.38;29.12;;;;;;;12.12;68.49;99907.65;1802736;78;21391;-78
2021/03/25 09:29:25;;;;;;;37.00;28.17;;;;;;;12.20;68.45;99908.95;1804770;78;21253;-80
2021/03/25 09:32:01;;;;;;;35.17;27.98;;;;;;;12.14;67.86;99902.72;1806665;77;21228;-80
2021/03/25 09:34:49;;;;;;;41.63;27.53;;;;;;;12.00;67.87;99906.03;1807922;78;21242;-79
2021/03/25 09:37:24;;;;;;;37.08;27.80;;;;;;;11.99;68.17;99900.89;1750477;81;21996;-79
2021/03/25 09:40:10;;;;;;;46.83;28.50;;;;;;;12.01;67.89;99899.02;1773519;79;21227;-78
2021/03/25 09:42:37;;;;;;;37.03;26.95;;;;;;;11.98;67.85;99901.80;1747377;80;21093;-79
2021/03/25 09:45:32;;;;;;;;;;;;;;;12.14;67.75;99900.11;1752477;80;21615;-82
2021/03/25 09:48:02;;;;;;;61.10;28.57;;;;;;;12.38;67.76;99901.06;1655056;84;20372;-79
2021/03/25 09:50:33;;;;;;;41.42;27.85;;;;;;;12.51;67.44;99900.82;1661957;84;21228;-80
2021/03/25 09:53:16;;;;;;;38.92;30.20;;;;;;;12.53;67.72;99906.83;1679249;84;22296;-79
2021/03/25 09:56:24;;;;;;;36.20;29.30;;;;;;;12.47;67.30;99913.23;1713886;81;21218;-79
2021/03/25 09:58:52;;;;;;;37.25;30.15;;;;;;;12.33;67.04;99903.11;1711271;83;21225;-80
2021/03/25 10:01:51;;;;;;;60.23;29.40;;;;;;;12.01;66.94;99906.88;1714657;81;21250;-79
2021/03/25 10:04:29;;;;;;;51.85;30.97;;;;;;;11.82;67.06;99906.94;1714379;81;21270;-79
2021/03/25 10:07:11;;;;;;;42.23;31.93;;;;;;;11.66;66.99;99904.22;1715462;82;21733;-79
2021/03/25 10:09:54;;;;;;;56.85;31.57;;;;;;;11.63;67.26;99899.14;1711277;83;21238;-79
2021/03/25 10:12:54;;;;;;;43.55;31.82;;;;;;;11.77;67.13;99890.61;1876142;74;22687;-78
2021/03/25 10:15:41;;;;;;;39.40;30.00;;;;;;;11.71;66.98;99868.22;1816456;75;21162;-79
2021/03/25 10:18:16;;;;;;;42.27;31.65;;;;;;;11.71;66.98;99868.22;1854000;75;21191;-79
2021/03/25 10:21:01;;;;;;;74.03;31.60;;;;;;;11.76;66.48;99884.54;1811281;75;21170;-79
2021/03/25 10:23:39;;;;;;;39.70;31.62;;;;;;;11.67;66.66;99881.05;1840151;75;21166;-78
2021/03/25 10:26:14;;;;;;;36.85;29.15;;;;;;;11.58;66.60;99874.97;1842164;75;21222;-78
2021/03/25 10:29:04;;;;;;;47.80;30.82;;;;;;;11.63;66.62;99871.67;1843444;75;21134;-79
2021/03/25 10:31:40;;;;;;;56.40;31.15;;;;;;;11.74;66.67;99872.45;1846502;75;21137;-79
2021/03/25 10:34:24;;;;;;;43.10;31.73;;;;;;;11.88;66.64;99874.42;1847514;75;21637;-78
2021/03/25 10:36:59;;;;;;;41.02;31.73;;;;;;;12.01;66.65;99874.16;1841231;75;21831;-79
2021/03/25 10:39:32;;;;;;;42.03;29.85;;;;;;;12.12;66.48;99853.52;1840254;75;21163;-79
2021/03/25 10:42:38;;;;;;;46.13;33.13;;;;;;;12.12;66.48;99853.52;1849991;75;21584;-80
2021/03/25 10:45:23;;;;;;;42.03;32.30;;;;;;;12.52;66.30;99865.87;1767792;79;22829;-78
2021/03/25 10:48:20;;;;;;;67.53;33.95;;;;;;;12.57;66.07;99871.68;1741973;80;21094;-77
2021/03/25 10:50:55;;;;;;;36.93;32.17;;;;;;;12.53;65.92;99859.69;1736926;81;21400;-78
2021/03/25 10:53:27;;;;;;;41.83;31.70;;;;;;;12.63;65.99;99871.37;1737986;81;21574;-78
2021/03/25 10:56:09;;;;;;;42.70;33.70;;;;;;;12.62;65.29;99869.67;1734693;80;21724;-79
2021/03/25 10:58:40;;;;;;;45.30;33.38;;;;;;;12.69;65.72;99872.36;1736650;80;21295;-76
2021/03/25 11:01:24;;;;;;;41.23;32.65;;;;;;;12.69;65.72;99872.36;1711119;81;21224;-76
2021/03/25 11:03:52;;;;;;;44.65;34.88;;;;;;;12.70;65.64;99877.13;1735263;81;21617;-78
2021/03/25 11:06:33;;;;;;;41.00;33.85;;;;;;;12.61;65.29;99886.32;1723409;81;21294;-79
2021/03/25 11:09:10;;;;;;;42.67;34.20;;;;;;;12.52;64.95;99876.34;1739436;80;21673;-78
2021/03/25 11:13:24;;;;;;;40.23;32.28;;;;;;;12.28;64.69;99879.30;1790983;78;21984;-79
2021/03/25 11:16:40;;;;;;;41.37;31.52;;;;;;;12.20;65.16;99881.46;1768510;80;21235;-78
2021/03/25 11:19:17;;;;;;;47.75;36.93;;;;;;;12.09;65.27;99866.30;1739070;79;21680;-76
2021/03/25 11:22:00;;;;;;;43.13;33.05;;;;;;;12.09;65.27;99866.30;1768677;80;21667;-77
2021/03/25 11:24:44;;;;;;;50.33;36.33;;;;;;;12.30;65.24;99870.91;1760497;78;21416;-78
2021/03/25 11:27:51;;;;;;;48.15;36.70;;;;;;;12.44;64.54;99873.28;1828852;77;22872;-77
2021/03/25 11:30:52;;;;;;;43.10;34.20;;;;;;;12.46;65.15;99875.33;1793531;77;21290;-76
2021/03/25 11:33:44;;;;;;;45.55;36.05;;;;;;;12.59;64.72;99869.83;1793207;78;21215;-77
2021/03/25 11:36:13;;;;;;;50.85;38.48;;;;;;;12.59;64.72;99869.83;1794559;78;21656;-77
2021/03/25 11:38:44;;;;;;;49.50;38.60;;;;;;;12.60;64.93;99871.52;1795377;78;21198;-77
2021/03/25 11:41:20;;;;;;;49.90;37.75;;;;;;;12.78;65.04;99871.48;1795653;78;21066;-77
2021/03/25 11:43:55;;;;;;;47.17;37.30;;;;;;;12.80;64.64;99864.36;1797923;78;21134;-77
2021/03/25 11:46:39;;;;;;;51.98;36.90;;;;;;;12.67;64.26;99867.66;1797258;78;22666;-79
2021/03/25 11:49:17;;;;;;;45.12;36.50;;;;;;;12.67;64.26;99867.66;1803255;78;21153;-78
2021/03/25 11:51:58;;;;;;;45.38;35.95;;;;;;;12.72;64.31;99872.19;1797919;78;21021;-84
2021/03/25 11:54:33;;;;;;;51.33;37.67;;;;;;;12.75;64.42;99865.47;1766001;78;21259;-79
2021/03/25 11:57:18;;;;;;;48.25;35.50;;;;;;;12.78;64.21;99866.23;1798567;78;21248;-77
2021/03/25 11:59:46;;;;;;;58.63;39.83;;;;;;;12.82;64.04;99867.75;1791196;78;21201;-79
2021/03/25 12:02:22;;;;;;;48.78;37.90;;;;;;;12.79;64.14;99862.68;1795582;78;22340;-78
2021/03/25 12:04:51;;;;;;;51.13;38.60;;;;;;;12.84;64.01;99851.49;1796413;78;21622;-77
2021/03/25 12:07:25;;;;;;;65.62;38.78;;;;;;;12.83;63.93;99859.82;1802898;78;21187;-78
2021/03/25 12:10:16;;;;;;;47.13;36.42;;;;;;;12.78;63.77;99855.77;1799888;78;21201;-77
2021/03/25 12:12:48;;;;;;;45.05;36.90;;;;;;;12.74;63.75;99858.55;1799314;78;21503;-78
2021/03/25 12:15:21;;;;;;;71.02;39.18;;;;;;;12.71;63.86;99853.45;1796188;78;21042;-79
2021/03/25 12:17:58;;;;;;;87.85;40.30;;;;;;;12.66;63.82;99841.52;1801374;78;21259;-77
2021/03/25 12:20:30;;;;;;;51.70;37.30;;;;;;;12.78;63.91;99846.59;1806962;78;21024;-78
2021/03/25 12:23:05;;;;;;;47.70;38.90;;;;;;;12.89;63.76;99837.68;1802875;78;21631;-77
2021/03/25 12:25:32;;;;;;;47.03;37.17;;;;;;;12.99;63.80;99848.89;1795085;78;21379;-83
2021/03/25 12:27:59;;;;;;;77.47;39.10;;;;;;;13.07;63.50;99843.20;1783302;79;21570;-78
2021/03/25 12:30:26;;;;;;;46.25;38.23;;;;;;;13.02;63.37;99846.53;1789611;79;21066;-75